Aviation Meteorology - National Center of Meteorology
Email: forecaster@adiamet.gov.ae
Website: www.avmet.ae

GULF METAR
METAR OMAA 152100Z 11002KT CAVOK 33/23 Q0997 NOSIG=
METAR OMAD 152100Z 25004KT 220V300 8000 NSC 32/28 Q0998 NOSIG=
METAR OMAL 152100Z 34005KT CAVOK 36/13 Q1000 NOSIG=
METAR OMDB 152100Z 05005KT 360V100 CAVOK 37/14 Q0998 NOSIG=
METAR OMDW 152100Z 17004KT CAVOK 32/16 Q0998 NOSIG=
METAR OMSJ 152100Z 05004KT CAVOK 32/16 Q0998=
METAR OMRK 152100Z VRB02KT 8000 NSC 30/22 Q0998 A2949=
METAR OMFJ 152100Z 09003KT 7000 NSC 34/29 Q0998 A2948=
METAR OMAW 152100Z AUTO 13003KT 9999 NCD 29/19 Q0998 A2949=
METAR OMAM 152100Z 25006KT CAVOK 29/20 Q0999 A2950=
METAR OMLW 152100Z AUTO 36002KT 4600 BR ////// 29/27 Q0999 A2952=
METAR OMDM 152100Z AUTO VRB02KT 9999 NCD 30/13 Q0998 A2948=
METAR OMAH 152100Z AUTO 33004KT //// // ////// 31/28 Q0999 A2952=
METAR OMDL 152100Z AUTO 21001KT //// // ////// 29/28 Q0998 A2948=
METAR OTBD 152100Z AUTO 01004KT 310V050 CAVOK 32/27 Q0998 NOSIG=
METAR OTHH 152100Z AUTO 36005KT CAVOK 31/25 Q0998 NOSIG=
METAR OBBI 152100Z 30009KT CAVOK 36/19 Q0998 NOSIG=
METAR OOMS 152050Z 32005KT CAVOK 34/29 Q0996 NOSIG=
METAR OOSA 152050Z 21007KT 9000 SCT014 BKN025 30/28 Q1002 NOSIG=
METAR OKBK 152100Z 18004KT CAVOK 33/04 Q1001 NOSIG=
 
GULF TAF
TAF AMD OMAA 152119Z 1520/1700 VRB02KT 8000 NSC PROB30 1600/1603 1500 BR BECMG 1607/1609 34014KT BECMG 1617/1619 05005KT=
TAF AMD OMAD 152119Z 1520/1700 VRB02KT 8000 NSC PROB30 1600/1604 2000 BR BECMG 1607/1609 34012KT BECMG 1617/1619 05005KT=
TAF OMAL 151700Z 1518/1700 35009KT 8000 NSC BECMG 1522/1600 07006KT BECMG 1605/1607 01012KT PROB30 TEMPO 1612/1615 VRB15G25KT 4000 BLDU FEW045TCU BECMG 1618/1620 08006KT=
TAF OMDB 151655Z 1518/1700 04005KT 8000 NSC BECMG 1604/1606 10010KT BECMG 1609/1611 01012KT BECMG 1616/1618 05005KT=
TAF AMD OMDW 152005Z 1520/1700 34005KT 8000 NSC PROB30 1600/1604 3000 BR BECMG 1603/1605 09012KT BECMG 1610/1612 01014KT BECMG 1616/1618 06005KT=
TAF OMSJ 151655Z 1518/1700 05005KT 8000 NSC PROB30 1600/1604 4000 HZ BECMG 1603/1605 11012KT BECMG 1610/1612 02014KT BECMG 1615/1617 07005KT=
TAF OMRK 151655Z 1518/1700 VRB02KT 8000 NSC BECMG 1603/1605 13012KT PROB30 1610/1614 36012KT BECMG 1617/1619 VRB02KT=
TAF OMFJ 151700Z 1518/1624 VRB03KT 7000 NSC TEMPO 1523/1603 4000 HZ BECMG 1603/1605 07010KT BECMG 1614/1616 VRB03KT=
TAF OTBD 151707Z 1518/1624 36005KT CAVOK BECMG 1520/1522 29006KT BECMG 1605/1607 08008KT BECMG 1620/1622 VRB02KT =
TAF OTHH 151707Z 1518/1624 01006KT CAVOK BECMG 0520/1522 28007KT BECMG 1605/1607 09009KT BECMG 1620/1622 VRB03KT=
TAF OBBI 151700Z 1518/1700 33010KT CAVOK=
TAF OOMS 151700Z 1518/1624 VRB02KT 8000 NSC TEMPO 1518/1522 25006KT BECMG 1606/1608 06015KT=
TAF OOSA 151740Z 1518/1700 VRB03KT 7000 SCT014 BKN025 BECMG 1605/1607 20012KT=
TAF OKBK 151645Z 1518/1624 VRB03KT 7000 SKC TEMPO 1518/1523 15008KT=
 
Information made available by Abu Dhabi International Airport - Aviation Meteorology (NCM)
Printed on:15/06/2019-2147UTC


D:\Input Parser\Destinations\Final\21\OMAAL20002119784352405.txt
TAF AMD OMAA 152119Z 1520/1700 VRB02KT 8000 NSC PROB30 1600/1603 1500 BR BECMG 1607/1609 34014KT BECMG 1617/1619 05005KT=

D:\Input Parser\Destinations\Final\21\OMADL20002119408511502.txt
TAF AMD OMAD 152119Z 1520/1700 VRB02KT 8000 NSC PROB30 1600/1604 2000 BR BECMG 1607/1609 34012KT BECMG 1617/1619 05005KT=

D:\Input Parser\Destinations\Final\17\OMALL18001700190948013.txt
TAF OMAL 151700Z 1518/1700 35009KT 8000 NSC BECMG 1522/1600 07006KT BECMG 1605/1607 01012KT PROB30 TEMPO 1612/1615 VRB15G25KT 4000 BLDU FEW045TCU BECMG 1618/1620 08006KT=

D:\Input Parser\Destinations\Final\16\OMDBL180016552139420643.txt
TAF OMDB 151655Z 1518/1700 04005KT 8000 NSC BECMG 1604/1606 10010KT BECMG 1609/1611 01012KT BECMG 1616/1618 05005KT=

D:\Input Parser\Destinations\Final\20\OMDWL200020051855234909.txt
TAF AMD OMDW 152005Z 1520/1700 34005KT 8000 NSC PROB30 1600/1604 3000 BR BECMG 1603/1605 09012KT BECMG 1610/1612 01014KT BECMG 1616/1618 06005KT=

D:\Input Parser\Destinations\Final\16\OMSJL180016551681390359.txt
TAF OMSJ 151655Z 1518/1700 05005KT 8000 NSC PROB30 1600/1604 4000 HZ BECMG 1603/1605 11012KT BECMG 1610/1612 02014KT BECMG 1615/1617 07005KT=

D:\Input Parser\Destinations\Final\16\OMRKL18001655803430667.txt
TAF OMRK 151655Z 1518/1700 VRB02KT 8000 NSC BECMG 1603/1605 13012KT PROB30 1610/1614 36012KT BECMG 1617/1619 VRB02KT=

D:\Input Parser\Destinations\Final\17\OMFJL182417001229577055.txt
TAF OMFJ 151700Z 1518/1624 VRB03KT 7000 NSC TEMPO 1523/1603 4000 HZ BECMG 1603/1605 07010KT BECMG 1614/1616 VRB03KT=